createdAt,value
2024-02-15T00:08:13.209Z,7.83
2024-02-15T00:13:14.241Z,7.75
2024-02-15T00:18:16.576Z,7.72
2024-02-15T00:23:18.015Z,7.75
2024-02-15T00:28:18.853Z,7.81
2024-02-15T00:33:21.471Z,7.89
2024-02-15T00:38:22.855Z,7.89
2024-02-15T00:43:23.973Z,7.91
2024-02-15T00:48:30.045Z,7.96
2024-02-15T00:53:30.914Z,7.99
2024-02-15T00:58:32.441Z,8.00
2024-02-15T01:03:35.862Z,8.07
2024-02-15T01:08:37.969Z,8.13
2024-02-15T01:13:38.785Z,8.11
2024-02-15T01:18:41.267Z,8.09
2024-02-15T01:23:42.651Z,8.15
2024-02-15T01:28:44.476Z,8.18
2024-02-15T01:33:47.784Z,8.22
2024-02-15T01:38:48.663Z,8.17
2024-02-15T01:43:51.143Z,8.22
2024-02-15T01:48:53.683Z,8.20
2024-02-15T01:53:55.666Z,8.21
2024-02-15T01:58:56.493Z,8.27
2024-02-15T02:03:59.043Z,8.25
2024-02-15T02:09:00.204Z,8.28
2024-02-15T02:14:01.033Z,8.33
2024-02-15T02:19:06.036Z,8.33
2024-02-15T02:24:15.059Z,8.34
2024-02-15T02:29:18.670Z,8.32
2024-02-15T02:34:20.939Z,8.33
2024-02-15T02:39:24.263Z,8.37
2024-02-15T02:44:26.855Z,8.43
2024-02-15T02:49:27.833Z,8.44
2024-02-15T02:54:30.454Z,8.52
2024-02-15T02:59:32.542Z,8.50
2024-02-15T03:04:34.865Z,8.52
2024-02-15T03:09:36.720Z,8.57
2024-02-15T03:14:38.785Z,8.58
2024-02-15T03:19:39.620Z,8.57
2024-02-15T03:24:41.145Z,8.54
2024-02-15T03:29:43.908Z,8.63
2024-02-15T03:34:44.843Z,8.62
2024-02-15T03:39:45.803Z,8.62
2024-02-15T03:44:49.085Z,8.62
2024-02-15T03:49:49.886Z,8.67
2024-02-15T03:54:50.626Z,8.71
2024-02-15T03:59:54.073Z,8.65
2024-02-15T04:04:55.950Z,8.62
2024-02-15T04:09:56.773Z,8.69
2024-02-15T04:15:05.844Z,8.72
2024-02-15T04:20:07.825Z,8.70
2024-02-15T04:25:10.861Z,8.72
2024-02-15T04:30:13.830Z,8.75
2024-02-15T04:35:15.628Z,8.73
2024-02-15T04:40:19.366Z,8.74
2024-02-15T04:45:23.478Z,8.72
2024-02-15T04:50:24.241Z,8.77
2024-02-15T04:55:25.055Z,8.74
2024-02-15T05:00:27.738Z,8.78
2024-02-15T05:05:30.453Z,8.78
2024-02-15T05:10:31.242Z,8.83
2024-02-15T05:15:34.193Z,8.85
2024-02-15T05:20:35.699Z,8.84
2024-02-15T05:25:36.684Z,9.25
2024-02-15T05:30:40.571Z,8.96
2024-02-15T05:35:42.763Z,8.92
2024-02-15T05:40:44.078Z,8.90
2024-02-15T05:45:46.903Z,8.87
2024-02-15T05:50:47.842Z,8.89
2024-02-15T05:55:50.815Z,8.85
2024-02-15T06:00:54.162Z,8.74
2024-02-15T06:05:59.396Z,8.74
2024-02-15T06:11:00.588Z,8.72
2024-02-15T06:16:02.704Z,8.70
2024-02-15T06:21:03.712Z,8.68
2024-02-15T06:26:04.797Z,8.63
2024-02-15T06:31:24.875Z,8.61
2024-02-15T06:36:43.352Z,8.61
2024-02-15T06:41:44.099Z,8.62
2024-02-15T06:46:47.460Z,8.59
2024-02-15T06:51:50.553Z,8.62
2024-02-15T06:56:53.306Z,8.69
2024-02-15T07:01:56.568Z,8.66
2024-02-15T07:06:58.172Z,8.71
2024-02-15T07:11:59.409Z,8.73
2024-02-15T07:17:01.746Z,8.74
2024-02-15T07:22:23.579Z,8.75
2024-02-15T07:27:27.948Z,8.76
2024-02-15T07:32:30.217Z,8.94
2024-02-15T07:37:31.115Z,9.06
2024-02-15T07:42:32.071Z,9.17
2024-02-15T07:47:35.778Z,9.34
2024-02-15T07:52:36.560Z,9.40
2024-02-15T07:57:50.621Z,9.50
2024-02-15T08:02:55.819Z,9.56
2024-02-15T08:07:59.290Z,9.58
2024-02-15T08:13:00.352Z,9.75
2024-02-15T08:18:06.707Z,10.14
2024-02-15T08:23:07.824Z,10.21
2024-02-15T08:28:11.119Z,10.25
2024-02-15T08:33:13.317Z,10.23
2024-02-15T08:38:14.110Z,10.35
2024-02-15T08:43:14.900Z,10.42
2024-02-15T08:48:17.171Z,10.51
2024-02-15T08:53:20.155Z,10.67
2024-02-15T08:58:22.463Z,11.08
2024-02-15T09:03:24.684Z,11.45
2024-02-15T09:08:25.532Z,11.54
2024-02-15T09:13:26.357Z,11.65
2024-02-15T09:18:28.549Z,11.70
2024-02-15T09:23:29.354Z,11.79
2024-02-15T09:28:30.083Z,11.78
2024-02-15T09:33:32.376Z,11.82
2024-02-15T09:38:33.150Z,11.95
2024-02-15T09:43:33.905Z,11.98
2024-02-15T09:48:36.713Z,12.07
2024-02-15T09:53:37.811Z,11.98
2024-02-15T09:58:38.691Z,11.83
2024-02-15T10:03:42.273Z,11.72
2024-02-15T10:08:43.048Z,11.64
2024-02-15T10:13:45.957Z,11.77
2024-02-15T10:18:49.337Z,11.90
2024-02-15T10:24:07.846Z,12.07
2024-02-15T10:29:11.824Z,12.28
2024-02-15T10:34:16.367Z,12.15
2024-02-15T10:39:20.672Z,11.87
2024-02-15T10:44:23.401Z,11.74
2024-02-15T10:49:26.846Z,11.78
2024-02-15T10:54:43.713Z,11.78
2024-02-15T10:59:56.114Z,11.93
2024-02-15T11:05:04.903Z,12.11
2024-02-15T11:10:09.864Z,12.22
2024-02-15T11:15:13.217Z,12.26
2024-02-15T11:20:54.449Z,12.26
2024-02-15T11:25:57.258Z,12.30
2024-02-15T11:30:58.800Z,12.51
2024-02-15T11:36:11.350Z,12.99
2024-02-15T11:41:12.604Z,13.58
2024-02-15T11:46:15.208Z,13.64
2024-02-15T11:51:29.022Z,13.67
2024-02-15T11:56:30.006Z,13.61
2024-02-15T12:01:56.272Z,13.90
2024-02-15T12:07:18.501Z,13.89
2024-02-15T12:12:38.061Z,13.85
2024-02-15T12:17:56.519Z,13.81
2024-02-15T12:22:59.548Z,13.75
2024-02-15T12:28:02.993Z,13.66
2024-02-15T12:33:11.816Z,13.73
2024-02-15T12:38:17.810Z,13.71
2024-02-15T12:43:19.429Z,14.24
2024-02-15T12:48:21.072Z,14.63
2024-02-15T12:53:26.284Z,14.25
2024-02-15T12:58:27.729Z,14.29
2024-02-15T13:03:28.568Z,14.29
2024-02-15T13:08:30.640Z,14.51
2024-02-15T13:13:31.422Z,14.55
2024-02-15T13:18:32.426Z,14.69
2024-02-15T13:23:36.752Z,14.50
2024-02-15T13:28:37.548Z,14.48
2024-02-15T13:33:38.423Z,14.91
2024-02-15T13:38:40.606Z,15.25
2024-02-15T13:43:42.465Z,15.68
2024-02-15T13:48:45.061Z,16.08
2024-02-15T13:53:48.533Z,16.32
2024-02-15T13:58:49.524Z,16.54
2024-02-15T14:03:50.227Z,16.16
2024-02-15T14:08:52.593Z,15.95
2024-02-15T14:13:59.263Z,15.79
2024-02-15T14:19:00.554Z,15.73
2024-02-15T14:24:04.498Z,15.30
2024-02-15T14:29:06.656Z,15.39
2024-02-15T14:34:07.512Z,15.28
2024-02-15T14:39:10.886Z,15.22
2024-02-15T14:44:13.687Z,14.95
2024-02-15T14:49:14.406Z,15.00
2024-02-15T14:54:23.617Z,15.11
2024-02-15T14:59:24.876Z,15.16
2024-02-15T15:04:27.630Z,14.81
2024-02-15T15:09:47.353Z,14.60
2024-02-15T15:14:49.077Z,14.32
2024-02-15T15:19:49.962Z,14.26
2024-02-15T15:24:52.078Z,14.20
2024-02-15T15:29:52.846Z,14.09
2024-02-15T15:34:53.648Z,13.97
2024-02-15T15:39:57.373Z,13.90
2024-02-15T15:44:58.217Z,13.79
2024-02-15T15:50:00.074Z,13.66
2024-02-15T15:55:02.331Z,13.50
2024-02-15T16:00:03.964Z,13.29
2024-02-15T16:05:05.836Z,13.15
2024-02-15T16:10:09.476Z,12.99
2024-02-15T16:15:14.158Z,12.87
2024-02-15T16:20:15.805Z,12.73
2024-02-15T16:25:18.653Z,12.53
2024-02-15T16:30:19.844Z,12.59
2024-02-15T16:35:21.089Z,12.64
2024-02-15T16:40:24.079Z,12.64
2024-02-15T16:45:25.270Z,12.58
2024-02-15T16:50:26.536Z,12.51
2024-02-15T16:55:32.226Z,12.32
2024-02-15T17:00:34.120Z,12.23
2024-02-15T17:05:36.486Z,12.11
2024-02-15T17:10:39.822Z,11.99
2024-02-15T17:15:41.424Z,11.92
2024-02-15T17:20:42.169Z,11.92
2024-02-15T17:25:44.782Z,11.71
2024-02-15T17:30:46.618Z,11.55
2024-02-15T17:35:48.089Z,11.53
2024-02-15T17:40:50.918Z,11.72
2024-02-15T17:45:51.944Z,11.76
2024-02-15T17:50:52.909Z,11.72
2024-02-15T17:55:57.410Z,11.67
2024-02-15T18:00:58.223Z,11.48
2024-02-15T18:05:59.055Z,11.46
2024-02-15T18:11:01.611Z,11.38
2024-02-15T18:16:02.522Z,11.31
2024-02-15T18:21:03.339Z,11.37
2024-02-15T18:26:05.696Z,11.17
2024-02-15T18:31:09.926Z,11.07
2024-02-15T18:36:11.899Z,11.03
2024-02-15T18:41:13.932Z,11.02
2024-02-15T18:46:16.374Z,10.97
2024-02-15T18:51:18.217Z,10.98
2024-02-15T18:56:21.293Z,10.91
2024-02-15T19:01:24.495Z,10.83
2024-02-15T19:06:26.345Z,10.75
2024-02-15T19:11:28.531Z,10.57
2024-02-15T19:16:30.613Z,10.57
2024-02-15T19:21:31.544Z,10.54
2024-02-15T19:26:34.175Z,10.45
2024-02-15T19:31:37.527Z,10.42
2024-02-15T19:36:38.758Z,10.35
2024-02-15T19:41:42.495Z,10.37
2024-02-15T19:46:44.067Z,10.36
2024-02-15T19:51:45.545Z,10.29
2024-02-15T19:56:47.613Z,10.29
2024-02-15T20:01:48.459Z,10.20
2024-02-15T20:06:49.311Z,10.17
2024-02-15T20:11:51.485Z,10.07
2024-02-15T20:16:55.669Z,10.04
2024-02-15T20:21:56.596Z,10.02
2024-02-15T20:26:58.829Z,9.86
2024-02-15T20:32:00.447Z,9.88
2024-02-15T20:37:01.294Z,9.85
2024-02-15T20:42:04.858Z,9.77
2024-02-15T20:47:11.336Z,9.71
2024-02-15T20:52:12.256Z,9.69
2024-02-15T20:57:17.652Z,9.61
2024-02-15T21:02:21.266Z,9.63
2024-02-15T21:07:22.708Z,9.60
2024-02-15T21:12:25.461Z,9.50
2024-02-15T21:17:26.576Z,9.55
2024-02-15T21:22:30.724Z,9.48
2024-02-15T21:27:32.865Z,9.37
2024-02-15T21:32:33.686Z,9.34
2024-02-15T21:37:34.533Z,9.26
2024-02-15T21:42:36.569Z,9.28
2024-02-15T21:47:38.450Z,9.29
2024-02-15T21:52:39.293Z,9.30
2024-02-15T21:57:41.350Z,9.37
2024-02-15T22:02:42.242Z,9.39
2024-02-15T22:07:43.059Z,9.37
2024-02-15T22:12:45.068Z,9.38
2024-02-15T22:17:45.863Z,9.39
2024-02-15T22:22:46.661Z,9.48
2024-02-15T22:27:48.727Z,9.43
2024-02-15T22:32:49.910Z,9.50
2024-02-15T22:37:50.754Z,9.42
2024-02-15T22:42:53.168Z,9.42
2024-02-15T22:47:54.907Z,9.38
2024-02-15T22:52:55.679Z,9.39
2024-02-15T22:57:57.732Z,9.45
2024-02-15T23:02:58.564Z,9.51
2024-02-15T23:07:59.316Z,9.48
2024-02-15T23:13:01.956Z,9.54
2024-02-15T23:18:02.790Z,9.48
2024-02-15T23:23:03.646Z,9.43
2024-02-15T23:28:06.204Z,9.43
2024-02-15T23:33:08.614Z,9.37
2024-02-15T23:38:27.015Z,9.34
2024-02-15T23:43:29.155Z,9.33
2024-02-15T23:48:30.033Z,9.25
2024-02-15T23:53:30.808Z,9.29
2024-02-15T23:58:33.434Z,9.24
